Terminal Aerodrome Forecast
Issued by NWS Honolulu, HI

Home | Current Version | Previous Version | Text Only | Print | Product List | Glossary On
Versions: 1 2 3 4 5 6 7 8 9 10 11 12 13 14 15 16 17 18 19 20 21 22 23 24
000
FTPA31 PHFO 290531
TAFHNL
TAF
PHNL 290531Z 2906/3012 06012G20KT P6SM FEW030 SCT060
     FM290900 06009KT P6SM SCT030 BKN060
     FM292100 06012G20KT P6SM FEW030 SCT060
     FM300900 06009KT P6SM SCT030 BKN060=

USA.gov is the U.S. government's official web portal to all federal, state and local government web resources and services.